createdAt,value
2017-06-17T00:00:53.000Z,3.27
2017-06-17T00:03:19.742Z,3.00
2017-06-17T00:05:46.380Z,3.30
2017-06-17T00:08:13.034Z,3.53
2017-06-17T00:10:39.671Z,3.20
2017-06-17T00:13:06.719Z,3.10
2017-06-17T00:15:33.357Z,3.40
2017-06-17T00:17:59.979Z,2.97
2017-06-17T00:20:26.633Z,3.73
2017-06-17T00:22:53.271Z,3.67
2017-06-17T00:25:19.884Z,3.37
2017-06-17T00:27:47.161Z,3.53
2017-06-17T00:30:13.779Z,3.30
2017-06-17T00:32:40.436Z,3.70
2017-06-17T00:35:07.075Z,4.00
2017-06-17T00:37:33.713Z,3.93
2017-06-17T00:40:00.350Z,3.40
2017-06-17T00:42:28.124Z,3.40
2017-06-17T00:44:54.855Z,3.67
2017-06-17T00:47:21.494Z,3.30
2017-06-17T00:49:48.710Z,3.80
2017-06-17T00:52:16.000Z,3.40
2017-06-17T00:54:43.461Z,3.33
2017-06-17T00:57:10.094Z,4.20
2017-06-17T00:59:37.331Z,3.80
2017-06-17T01:02:03.961Z,3.40
2017-06-17T01:04:45.344Z,3.50
2017-06-17T01:07:12.107Z,3.77
2017-06-17T01:09:38.744Z,3.87
2017-06-17T01:12:05.383Z,3.90
2017-06-17T01:14:33.269Z,3.90
2017-06-17T01:17:00.706Z,3.80
2017-06-17T01:19:27.344Z,3.53
2017-06-17T01:21:53.982Z,3.90
2017-06-17T01:24:20.621Z,3.90
2017-06-17T01:26:47.888Z,3.90
2017-06-17T01:29:15.331Z,4.03
2017-06-17T01:31:41.967Z,4.10
2017-06-17T01:34:08.606Z,3.63
2017-06-17T01:36:35.125Z,4.20
2017-06-17T01:39:01.676Z,4.20
2017-06-17T01:41:28.314Z,4.20
2017-06-17T01:43:54.953Z,4.43
2017-06-17T01:46:22.410Z,4.30
2017-06-17T01:48:49.048Z,4.47
2017-06-17T01:51:16.331Z,4.50
2017-06-17T01:53:42.939Z,4.83
2017-06-17T01:56:10.340Z,4.30
2017-06-17T01:58:37.446Z,3.90
2017-06-17T02:01:04.041Z,4.03
2017-06-17T02:03:30.718Z,4.30
2017-06-17T02:05:57.312Z,4.37
2017-06-17T02:08:23.994Z,4.57
2017-06-17T02:10:51.152Z,4.90
2017-06-17T02:13:18.500Z,4.03
2017-06-17T02:15:45.111Z,4.10
2017-06-17T02:18:11.774Z,4.30
2017-06-17T02:20:38.500Z,4.40
2017-06-17T02:23:05.168Z,3.93
2017-06-17T02:25:32.419Z,4.70
2017-06-17T02:27:59.158Z,4.70
2017-06-17T02:30:25.769Z,3.80
2017-06-17T02:32:54.864Z,4.07
2017-06-17T02:35:21.914Z,4.07
2017-06-17T02:37:48.576Z,4.50
2017-06-17T02:40:30.519Z,3.90
2017-06-17T02:43:11.922Z,4.10
2017-06-17T02:45:53.253Z,3.90
2017-06-17T02:48:35.127Z,4.20
2017-06-17T02:51:17.005Z,4.10
2017-06-17T02:53:58.375Z,4.33
2017-06-17T02:56:40.352Z,3.87
2017-06-17T02:59:21.867Z,3.50
2017-06-17T03:01:48.537Z,4.40
2017-06-17T03:04:30.387Z,4.40
2017-06-17T03:07:11.736Z,3.70
2017-06-17T03:09:53.564Z,4.30
2017-06-17T03:12:31.955Z,4.20
2017-06-17T03:15:13.636Z,4.23
2017-06-17T03:17:55.646Z,3.97
2017-06-17T03:20:25.422Z,4.30
2017-06-17T03:22:51.960Z,4.10
2017-06-17T03:25:18.569Z,4.50
2017-06-17T03:28:00.185Z,4.53
2017-06-17T03:30:26.821Z,4.00
2017-06-17T03:32:54.693Z,3.90
2017-06-17T03:35:22.124Z,4.37
2017-06-17T03:37:48.786Z,4.57
2017-06-17T03:40:15.295Z,4.20
2017-06-17T03:42:41.957Z,4.40
2017-06-17T03:45:08.569Z,4.37
2017-06-17T03:47:35.131Z,4.43
2017-06-17T03:50:02.124Z,4.30
2017-06-17T03:52:28.893Z,4.90
2017-06-17T03:54:55.557Z,4.20
2017-06-17T03:57:22.679Z,4.60
2017-06-17T03:59:49.220Z,4.50
2017-06-17T04:02:15.879Z,4.10
2017-06-17T04:04:42.493Z,4.53
2017-06-17T04:07:09.157Z,4.13
2017-06-17T04:09:35.793Z,4.47
2017-06-17T04:12:02.431Z,4.40
2017-06-17T04:14:29.070Z,4.90
2017-06-17T04:16:56.933Z,4.07
2017-06-17T04:19:23.573Z,4.40
2017-06-17T04:21:50.183Z,4.30
2017-06-17T04:24:16.850Z,3.93
2017-06-17T04:26:44.717Z,4.90
2017-06-17T04:29:11.328Z,4.30
2017-06-17T04:31:37.998Z,4.47
2017-06-17T04:34:05.113Z,4.20
2017-06-17T04:36:31.679Z,4.40
2017-06-17T04:38:58.315Z,4.10
2017-06-17T04:41:24.953Z,4.50
2017-06-17T04:43:51.592Z,4.23
2017-06-17T04:46:18.976Z,4.30
2017-06-17T04:48:45.659Z,4.70
2017-06-17T04:51:12.208Z,3.80
2017-06-17T04:53:38.757Z,4.20
2017-06-17T04:56:05.368Z,4.47
2017-06-17T04:58:32.034Z,4.00
2017-06-17T05:00:58.540Z,4.10
2017-06-17T05:03:25.821Z,4.03
2017-06-17T05:05:52.459Z,3.83
2017-06-17T05:08:19.921Z,3.73
2017-06-17T05:10:47.374Z,3.97
2017-06-17T05:13:14.011Z,3.80
2017-06-17T05:15:41.469Z,4.10
2017-06-17T05:18:08.052Z,3.77
2017-06-17T05:20:34.726Z,4.13
2017-06-17T05:23:01.384Z,4.00
2017-06-17T05:25:28.021Z,4.07
2017-06-17T05:27:54.658Z,3.80
2017-06-17T05:30:21.296Z,4.50
2017-06-17T05:32:48.652Z,4.80
2017-06-17T05:35:15.905Z,4.30
2017-06-17T05:37:43.333Z,4.63
2017-06-17T05:40:09.975Z,3.77
2017-06-17T05:42:36.468Z,4.23
2017-06-17T05:45:03.277Z,4.57
2017-06-17T05:47:30.705Z,4.20
2017-06-17T05:49:57.448Z,4.90
2017-06-17T05:52:24.088Z,4.90
2017-06-17T05:54:50.721Z,4.60
2017-06-17T05:57:17.385Z,4.17
2017-06-17T05:59:44.025Z,4.50
2017-06-17T06:02:25.513Z,4.70
2017-06-17T06:04:53.891Z,4.63
2017-06-17T06:07:21.277Z,4.83
2017-06-17T06:09:47.882Z,4.80
2017-06-17T06:12:14.496Z,5.17
2017-06-17T06:14:41.771Z,5.00
2017-06-17T06:17:08.385Z,4.90
2017-06-17T06:19:35.047Z,4.93
2017-06-17T06:22:01.788Z,4.40
2017-06-17T06:24:29.246Z,5.10
2017-06-17T06:26:55.855Z,4.73
2017-06-17T06:29:23.035Z,4.60
2017-06-17T06:31:50.490Z,4.73
2017-06-17T06:34:17.080Z,4.60
2017-06-17T06:36:43.765Z,4.27
2017-06-17T06:39:11.115Z,4.87
2017-06-17T06:41:38.478Z,4.50
2017-06-17T06:44:05.934Z,4.13
2017-06-17T06:46:32.546Z,4.27
2017-06-17T06:48:59.213Z,3.60
2017-06-17T06:51:25.848Z,4.00
2017-06-17T06:53:52.466Z,3.80
2017-06-17T06:56:20.768Z,4.70
2017-06-17T06:58:48.833Z,4.37
2017-06-17T07:01:15.472Z,4.10
2017-06-17T07:03:42.110Z,4.07
2017-06-17T07:06:08.724Z,3.47
2017-06-17T07:08:36.402Z,4.07
2017-06-17T07:11:03.047Z,4.33
2017-06-17T07:13:30.298Z,5.10
2017-06-17T07:15:56.922Z,4.50
2017-06-17T07:18:23.978Z,4.33
2017-06-17T07:20:50.597Z,3.60
2017-06-17T07:23:17.237Z,4.00
2017-06-17T07:25:43.875Z,4.23
2017-06-17T07:28:10.636Z,4.00
2017-06-17T07:30:37.871Z,3.33
2017-06-17T07:33:04.630Z,4.27
2017-06-17T07:35:31.269Z,3.60
2017-06-17T07:37:57.849Z,2.60
2017-06-17T07:40:24.543Z,3.20
2017-06-17T07:42:51.972Z,3.97
2017-06-17T07:45:18.633Z,3.40
2017-06-17T07:47:45.767Z,3.30
2017-06-17T07:50:14.142Z,3.60
2017-06-17T07:52:43.060Z,3.00
2017-06-17T07:55:09.876Z,2.60
2017-06-17T07:57:36.743Z,2.63
2017-06-17T08:00:03.382Z,2.50
2017-06-17T08:02:30.837Z,2.70
2017-06-17T08:04:58.093Z,3.07
2017-06-17T08:07:24.700Z,2.90
2017-06-17T08:09:51.367Z,2.53
2017-06-17T08:12:18.619Z,2.30
2017-06-17T08:14:45.710Z,2.73
2017-06-17T08:17:12.508Z,3.07
2017-06-17T08:19:39.146Z,2.83
2017-06-17T08:22:05.783Z,2.40
2017-06-17T08:24:32.422Z,2.50
2017-06-17T08:26:59.012Z,2.10
2017-06-17T08:29:25.672Z,2.20
2017-06-17T08:31:52.339Z,2.63
2017-06-17T08:34:19.592Z,3.37
2017-06-17T08:36:46.226Z,3.40
2017-06-17T08:39:12.870Z,2.50
2017-06-17T08:41:40.502Z,2.80
2017-06-17T08:44:07.369Z,2.33
2017-06-17T08:46:33.981Z,2.20
2017-06-17T08:49:00.644Z,1.90
2017-06-17T08:51:27.375Z,2.10
2017-06-17T08:53:54.124Z,2.20
2017-06-17T08:56:21.096Z,2.30
2017-06-17T08:58:47.811Z,2.50
2017-06-17T09:01:14.448Z,1.97
2017-06-17T09:03:41.061Z,2.60
2017-06-17T09:06:07.826Z,2.30
2017-06-17T09:08:34.463Z,2.00
2017-06-17T09:11:01.077Z,2.50
2017-06-17T09:13:27.740Z,2.63
2017-06-17T09:15:54.378Z,2.10
2017-06-17T09:18:21.016Z,2.20
2017-06-17T09:20:47.653Z,3.10
2017-06-17T09:23:14.252Z,2.87
2017-06-17T09:25:40.804Z,2.50
2017-06-17T09:28:07.568Z,2.13
2017-06-17T09:30:34.409Z,2.07
2017-06-17T09:33:01.049Z,2.77
2017-06-17T09:35:28.505Z,2.50
2017-06-17T09:37:55.117Z,2.27
2017-06-17T09:40:36.704Z,2.60
2017-06-17T09:43:04.021Z,2.63
2017-06-17T09:45:30.826Z,2.83
2017-06-17T09:47:58.284Z,3.30
2017-06-17T09:50:24.922Z,4.23
2017-06-17T09:52:51.558Z,4.97
2017-06-17T09:55:18.197Z,3.80
2017-06-17T09:57:44.808Z,3.03
2017-06-17T10:00:11.452Z,3.17
2017-06-17T10:02:38.084Z,3.50
2017-06-17T10:05:04.749Z,3.10
2017-06-17T10:07:31.387Z,2.93
2017-06-17T10:09:58.026Z,3.30
2017-06-17T10:12:25.481Z,3.43
2017-06-17T10:14:52.092Z,6.53
2017-06-17T10:17:18.757Z,3.73
2017-06-17T10:19:45.395Z,2.97
2017-06-17T10:22:12.033Z,2.90
2017-06-17T10:24:39.320Z,3.10
2017-06-17T10:27:06.129Z,2.93
2017-06-17T10:29:33.478Z,3.33
2017-06-17T10:32:00.196Z,3.50
2017-06-17T10:34:26.860Z,3.03
2017-06-17T10:36:53.476Z,3.63
2017-06-17T10:39:20.110Z,3.30
2017-06-17T10:41:46.656Z,3.53
2017-06-17T10:44:13.412Z,3.50
2017-06-17T10:46:40.594Z,3.70
2017-06-17T10:49:08.277Z,3.40
2017-06-17T10:51:34.937Z,3.53
2017-06-17T10:54:02.218Z,3.47
2017-06-17T10:56:29.386Z,3.80
2017-06-17T10:58:56.930Z,3.20
2017-06-17T11:01:23.567Z,3.97
2017-06-17T11:03:50.177Z,4.07
2017-06-17T11:06:17.380Z,4.07
2017-06-17T11:08:44.093Z,4.23
2017-06-17T11:11:10.705Z,4.20
2017-06-17T11:13:37.345Z,11.60
2017-06-17T11:16:04.006Z,5.53
2017-06-17T11:18:30.620Z,3.97
2017-06-17T11:20:57.256Z,3.80
2017-06-17T11:23:23.921Z,4.33
2017-06-17T11:25:51.195Z,3.90
2017-06-17T11:28:19.285Z,3.70
2017-06-17T11:30:45.880Z,3.20
2017-06-17T11:33:13.368Z,3.27
2017-06-17T11:35:39.976Z,3.77
2017-06-17T11:38:06.718Z,3.40
2017-06-17T11:40:33.216Z,4.30
2017-06-17T11:42:59.775Z,3.40
2017-06-17T11:45:27.263Z,3.20
2017-06-17T11:47:54.677Z,3.43
2017-06-17T11:50:21.340Z,3.40
2017-06-17T11:52:47.977Z,3.37
2017-06-17T11:55:14.615Z,3.33
2017-06-17T11:57:41.253Z,3.10
2017-06-17T12:00:07.891Z,3.40
2017-06-17T12:02:34.533Z,3.40
2017-06-17T12:05:01.168Z,3.30
2017-06-17T12:07:28.420Z,3.50
2017-06-17T12:09:55.060Z,3.00
2017-06-17T12:12:21.695Z,3.50
2017-06-17T12:14:48.747Z,3.50
2017-06-17T12:17:15.380Z,3.57
2017-06-17T12:19:41.993Z,3.50
2017-06-17T12:22:09.245Z,3.50
2017-06-17T12:24:35.908Z,3.80
2017-06-17T12:27:02.521Z,4.30
2017-06-17T12:29:29.530Z,4.10
2017-06-17T12:31:56.132Z,7.17
2017-06-17T12:34:22.664Z,4.93
2017-06-17T12:36:49.278Z,3.70
2017-06-17T12:39:16.760Z,3.93
2017-06-17T12:41:43.375Z,3.80
2017-06-17T12:44:10.445Z,3.93
2017-06-17T12:46:37.083Z,4.00
2017-06-17T12:49:03.720Z,3.87
2017-06-17T12:51:30.337Z,3.83
2017-06-17T12:53:56.854Z,3.60
2017-06-17T12:56:23.430Z,3.80
2017-06-17T12:58:50.040Z,4.10
2017-06-17T13:01:16.705Z,3.43
2017-06-17T13:03:43.345Z,3.63
2017-06-17T13:06:10.597Z,3.90
2017-06-17T13:08:37.213Z,3.83
2017-06-17T13:11:03.871Z,3.70
2017-06-17T13:13:30.486Z,4.30
2017-06-17T13:15:57.147Z,4.43
2017-06-17T13:18:23.785Z,4.63
2017-06-17T13:20:50.424Z,4.10
2017-06-17T13:23:17.064Z,4.20
2017-06-17T13:25:43.702Z,3.70
2017-06-17T13:28:10.336Z,3.90
2017-06-17T13:30:36.880Z,4.43
2017-06-17T13:33:03.614Z,3.93
2017-06-17T13:35:30.865Z,3.93
2017-06-17T13:37:57.479Z,3.80
2017-06-17T13:40:24.140Z,3.90
2017-06-17T13:42:51.598Z,4.50
2017-06-17T13:45:18.237Z,3.90
2017-06-17T13:47:44.873Z,4.67
2017-06-17T13:50:11.457Z,4.10
2017-06-17T13:52:38.126Z,4.37
2017-06-17T13:55:05.695Z,4.23
2017-06-17T13:57:32.216Z,4.30
2017-06-17T13:59:58.780Z,4.60
2017-06-17T14:02:25.418Z,4.20
2017-06-17T14:04:52.028Z,4.10
2017-06-17T14:07:19.168Z,4.60
2017-06-17T14:09:45.741Z,4.57
2017-06-17T14:12:12.379Z,4.50
2017-06-17T14:14:39.018Z,4.70
2017-06-17T14:17:06.566Z,6.80
2017-06-17T14:19:33.111Z,4.83
2017-06-17T14:22:20.435Z,4.53
2017-06-17T14:24:47.048Z,4.50
2017-06-17T14:27:13.685Z,4.50
2017-06-17T14:29:41.407Z,4.20
2017-06-17T14:32:08.010Z,4.70
2017-06-17T14:34:34.648Z,4.60
2017-06-17T14:37:01.285Z,5.00
2017-06-17T14:39:27.868Z,4.67
2017-06-17T14:41:54.562Z,4.50
2017-06-17T14:44:21.200Z,4.20
2017-06-17T14:46:47.837Z,4.67
2017-06-17T14:49:14.680Z,11.17
2017-06-17T14:51:41.293Z,13.50
2017-06-17T14:54:07.956Z,4.17
2017-06-17T14:56:35.413Z,4.70
2017-06-17T14:59:02.025Z,4.60
2017-06-17T15:01:28.688Z,4.30
2017-06-17T15:03:55.736Z,4.40
2017-06-17T15:06:22.837Z,3.93
2017-06-17T15:08:49.599Z,4.50
2017-06-17T15:11:16.264Z,3.77
2017-06-17T15:13:43.517Z,3.93
2017-06-17T15:16:10.101Z,3.73
2017-06-17T15:18:37.164Z,4.07
2017-06-17T15:21:03.915Z,4.10
2017-06-17T15:23:31.171Z,3.63
2017-06-17T15:25:57.832Z,4.17
2017-06-17T15:28:39.421Z,4.37
2017-06-17T15:31:06.161Z,4.50
2017-06-17T15:33:33.405Z,3.93
2017-06-17T15:36:00.522Z,4.37
2017-06-17T15:38:27.076Z,4.30
2017-06-17T15:40:53.738Z,4.10
2017-06-17T15:43:20.350Z,4.33
2017-06-17T15:45:47.628Z,3.93
2017-06-17T15:48:14.165Z,4.00
2017-06-17T15:50:40.802Z,3.90
2017-06-17T15:53:07.414Z,4.13
2017-06-17T15:55:34.065Z,4.60
2017-06-17T15:58:00.713Z,4.20
2017-06-17T16:00:27.352Z,4.60
2017-06-17T16:02:53.991Z,4.80
2017-06-17T16:05:20.627Z,4.73
2017-06-17T16:07:47.266Z,4.73
2017-06-17T16:10:14.388Z,3.97
2017-06-17T16:12:40.925Z,4.87
2017-06-17T16:15:22.516Z,4.47
2017-06-17T16:17:49.178Z,4.10
2017-06-17T16:20:15.789Z,4.23
2017-06-17T16:22:42.453Z,4.83
2017-06-17T16:25:09.091Z,4.63
2017-06-17T16:27:35.728Z,4.27
2017-06-17T16:30:02.368Z,5.10
2017-06-17T16:32:29.004Z,5.30
2017-06-17T16:34:55.642Z,4.93
2017-06-17T16:37:22.257Z,4.80
2017-06-17T16:39:49.022Z,4.77
2017-06-17T16:42:15.658Z,5.10
2017-06-17T16:44:42.297Z,4.87
2017-06-17T16:47:08.935Z,5.27
2017-06-17T16:49:35.548Z,4.50
2017-06-17T16:52:02.210Z,4.70
2017-06-17T16:54:28.848Z,5.00
2017-06-17T16:56:55.565Z,4.73
2017-06-17T16:59:22.225Z,5.27
2017-06-17T17:01:48.841Z,5.43
2017-06-17T17:04:15.481Z,5.20
2017-06-17T17:06:42.141Z,6.00
2017-06-17T17:09:09.244Z,5.67
2017-06-17T17:11:35.825Z,6.00
2017-06-17T17:14:03.692Z,5.80
2017-06-17T17:16:30.306Z,6.07
2017-06-17T17:18:56.970Z,5.67
2017-06-17T17:21:23.605Z,5.40
2017-06-17T17:23:50.192Z,6.50
2017-06-17T17:26:18.277Z,5.83
2017-06-17T17:28:44.952Z,6.37
2017-06-17T17:31:11.569Z,6.00
2017-06-17T17:33:38.228Z,5.87
2017-06-17T17:36:04.867Z,6.20
2017-06-17T17:38:32.071Z,6.40
2017-06-17T17:40:58.653Z,6.77
2017-06-17T17:43:25.273Z,6.70
2017-06-17T17:45:53.160Z,8.40
2017-06-17T17:48:19.772Z,7.90
2017-06-17T17:50:47.253Z,6.97
2017-06-17T17:53:13.891Z,8.00
2017-06-17T17:55:40.529Z,8.20
2017-06-17T17:58:07.147Z,8.57
2017-06-17T18:00:34.011Z,8.10
2017-06-17T18:03:00.648Z,8.97
2017-06-17T18:05:27.492Z,8.70
2017-06-17T18:07:54.129Z,8.80
2017-06-17T18:10:20.767Z,8.93
2017-06-17T18:12:47.613Z,9.17
2017-06-17T18:15:14.225Z,9.47
2017-06-17T18:17:40.884Z,9.90
2017-06-17T18:20:08.138Z,9.67
2017-06-17T18:22:34.778Z,9.97
2017-06-17T18:25:01.414Z,9.80
2017-06-17T18:27:27.962Z,9.90
2017-06-17T18:29:54.688Z,9.03
2017-06-17T18:32:21.327Z,9.40
2017-06-17T18:34:47.964Z,9.33
2017-06-17T18:37:15.115Z,9.30
2017-06-17T18:39:42.469Z,9.57
2017-06-17T18:42:09.615Z,9.50
2017-06-17T18:44:36.346Z,9.27
2017-06-17T18:47:02.997Z,9.20
2017-06-17T18:49:29.614Z,8.33
2017-06-17T18:51:56.145Z,8.90
2017-06-17T18:54:22.809Z,10.77
2017-06-17T18:56:50.072Z,17.97
2017-06-17T18:59:17.494Z,10.43
2017-06-17T19:01:44.158Z,10.20
2017-06-17T19:04:10.795Z,9.40
2017-06-17T19:06:37.432Z,8.50
2017-06-17T19:09:04.254Z,9.33
2017-06-17T19:11:31.372Z,9.43
2017-06-17T19:13:58.369Z,8.97
2017-06-17T19:16:25.008Z,9.40
2017-06-17T19:18:51.645Z,8.90
2017-06-17T19:21:18.283Z,9.43
2017-06-17T19:23:45.024Z,9.67
2017-06-17T19:26:12.205Z,9.20
2017-06-17T19:28:38.889Z,9.50
2017-06-17T19:31:05.552Z,9.10
2017-06-17T19:33:32.190Z,10.20
2017-06-17T19:35:58.828Z,10.40
2017-06-17T19:38:26.050Z,9.57
2017-06-17T19:40:52.693Z,9.20
2017-06-17T19:43:19.356Z,9.33
2017-06-17T19:45:45.969Z,8.47
2017-06-17T19:48:12.630Z,8.53
2017-06-17T19:50:39.247Z,9.87
2017-06-17T19:53:05.911Z,9.17
2017-06-17T19:55:32.626Z,9.40
2017-06-17T19:57:59.285Z,9.20
2017-06-17T20:00:26.345Z,9.10
2017-06-17T20:02:54.265Z,8.47
2017-06-17T20:05:21.042Z,9.03
2017-06-17T20:07:47.681Z,9.40
2017-06-17T20:10:14.319Z,9.50
2017-06-17T20:12:41.031Z,9.83
2017-06-17T20:15:09.135Z,9.30
2017-06-17T20:17:35.769Z,9.10
2017-06-17T20:20:29.440Z,9.47
2017-06-17T20:22:56.283Z,8.83
2017-06-17T20:25:22.921Z,9.00
2017-06-17T20:27:49.559Z,9.17
2017-06-17T20:30:16.072Z,9.00
2017-06-17T20:32:42.809Z,8.63
2017-06-17T20:35:09.472Z,8.67
2017-06-17T20:37:36.112Z,8.77
2017-06-17T20:40:02.750Z,9.00
2017-06-17T20:42:30.205Z,9.07
2017-06-17T20:44:56.843Z,9.27
2017-06-17T20:47:23.557Z,9.67
2017-06-17T20:49:50.220Z,9.83
2017-06-17T20:52:16.859Z,9.10
2017-06-17T20:54:43.499Z,8.70
2017-06-17T20:57:10.134Z,8.70
2017-06-17T20:59:36.772Z,9.40
2017-06-17T21:02:03.799Z,9.50
2017-06-17T21:04:30.458Z,8.93
2017-06-17T21:06:58.039Z,8.37
2017-06-17T21:09:25.356Z,8.90
2017-06-17T21:11:53.035Z,8.87
2017-06-17T21:14:19.672Z,9.10
2017-06-17T21:16:46.285Z,8.53
2017-06-17T21:19:12.947Z,9.37
2017-06-17T21:21:40.182Z,8.93
2017-06-17T21:24:06.813Z,8.80
2017-06-17T21:26:33.475Z,9.37
2017-06-17T21:29:00.606Z,9.00
2017-06-17T21:31:27.160Z,8.73
2017-06-17T21:33:53.772Z,9.47
2017-06-17T21:36:20.437Z,9.17
2017-06-17T21:38:47.053Z,8.57
2017-06-17T21:41:14.327Z,9.33
2017-06-17T21:43:40.965Z,9.17
2017-06-17T21:46:07.602Z,9.23
2017-06-17T21:48:34.241Z,9.80
2017-06-17T21:51:00.853Z,9.70
2017-06-17T21:53:27.516Z,9.97
2017-06-17T21:55:54.156Z,9.40
2017-06-17T21:58:20.793Z,9.60
2017-06-17T22:00:47.533Z,8.70
2017-06-17T22:03:14.821Z,10.37
2017-06-17T22:05:41.422Z,9.50
2017-06-17T22:08:08.060Z,9.77
2017-06-17T22:10:35.205Z,9.30
2017-06-17T22:13:01.747Z,9.40
2017-06-17T22:15:28.814Z,9.60
2017-06-17T22:17:56.251Z,10.10
2017-06-17T22:20:22.888Z,9.90
2017-06-17T22:22:49.500Z,9.60
2017-06-17T22:25:16.167Z,9.40
2017-06-17T22:27:42.801Z,9.70
2017-06-17T22:30:09.440Z,10.00
2017-06-17T22:32:36.078Z,9.70
2017-06-17T22:35:03.536Z,9.60
2017-06-17T22:37:30.172Z,10.80
2017-06-17T22:39:56.914Z,10.60
2017-06-17T22:42:23.653Z,9.97
2017-06-17T22:44:50.910Z,10.40
2017-06-17T22:47:17.544Z,10.77
2017-06-17T22:49:44.181Z,11.77
2017-06-17T22:52:10.796Z,10.83
2017-06-17T22:54:37.457Z,11.43
2017-06-17T22:57:04.095Z,11.23
2017-06-17T22:59:30.736Z,11.10
2017-06-17T23:01:57.384Z,12.00
2017-06-17T23:04:25.444Z,12.07
2017-06-17T23:06:52.083Z,11.60
2017-06-17T23:09:19.309Z,10.87
2017-06-17T23:11:45.953Z,10.80
2017-06-17T23:14:12.609Z,9.90
2017-06-17T23:16:39.248Z,10.43
2017-06-17T23:19:05.884Z,11.20
2017-06-17T23:21:32.525Z,9.97
2017-06-17T23:24:00.297Z,9.83
2017-06-17T23:26:27.616Z,9.60
2017-06-17T23:28:54.257Z,9.50
2017-06-17T23:31:20.997Z,9.87
2017-06-17T23:33:47.657Z,9.47
2017-06-17T23:36:14.241Z,9.80
2017-06-17T23:38:40.933Z,9.53
2017-06-17T23:41:07.497Z,10.00
2017-06-17T23:43:34.208Z,9.30
2017-06-17T23:46:00.826Z,10.10
2017-06-17T23:48:28.069Z,9.93
2017-06-17T23:50:54.739Z,10.03
2017-06-17T23:53:21.378Z,10.50
2017-06-17T23:55:48.017Z,10.37
2017-06-17T23:58:14.869Z,9.70
